createdAt,value
2022-09-12T00:00:30.358Z,12.32
2022-09-12T00:01:35.940Z,12.34
2022-09-12T00:02:41.939Z,12.34
2022-09-12T00:03:48.065Z,12.34
2022-09-12T00:04:53.553Z,12.35
2022-09-12T00:05:58.091Z,11.77
2022-09-12T00:07:03.639Z,11.77
2022-09-12T00:08:07.722Z,12.36
2022-09-12T00:09:14.485Z,12.35
2022-09-12T00:10:20.317Z,12.35
2022-09-12T00:11:24.780Z,12.35
2022-09-12T00:12:30.272Z,12.35
2022-09-12T00:13:38.342Z,12.35
2022-09-12T00:14:40.157Z,12.34
2022-09-12T00:15:45.036Z,12.36
2022-09-12T00:16:49.226Z,12.37
2022-09-12T00:17:53.225Z,12.37
2022-09-12T00:18:57.411Z,12.37
2022-09-12T00:20:01.412Z,12.36
2022-09-12T00:21:05.864Z,12.37
2022-09-12T00:22:10.080Z,12.37
2022-09-12T00:23:14.974Z,12.37
2022-09-12T00:24:19.006Z,12.37
2022-09-12T00:25:22.976Z,12.40
2022-09-12T00:26:28.479Z,12.40
2022-09-12T00:27:32.513Z,12.42
2022-09-12T00:28:37.964Z,12.42
2022-09-12T00:29:42.050Z,12.43
2022-09-12T00:30:47.910Z,12.43
2022-09-12T00:31:52.042Z,12.42
2022-09-12T00:32:56.015Z,12.43
2022-09-12T00:34:00.941Z,12.43
2022-09-12T00:35:05.234Z,12.41
2022-09-12T00:36:13.094Z,12.42
2022-09-12T00:37:17.085Z,12.42
2022-09-12T00:38:21.467Z,12.42
2022-09-12T00:39:26.797Z,12.44
2022-09-12T00:40:31.254Z,12.44
2022-09-12T00:41:39.796Z,12.44
2022-09-12T00:42:43.783Z,12.44
2022-09-12T00:43:53.595Z,12.45
2022-09-12T00:44:57.604Z,12.45
2022-09-12T00:46:04.592Z,12.46
2022-09-12T00:47:23.344Z,12.46
2022-09-12T00:48:30.296Z,12.46
2022-09-12T00:49:39.973Z,12.47
2022-09-12T00:50:44.022Z,12.47
2022-09-12T00:51:51.007Z,12.45
2022-09-12T00:52:57.996Z,12.46
2022-09-12T00:54:04.953Z,12.46
2022-09-12T00:55:26.699Z,12.46
2022-09-12T00:56:31.398Z,12.45
2022-09-12T00:57:38.345Z,12.46
2022-09-12T00:58:45.434Z,12.46
2022-09-12T00:59:52.388Z,12.45
2022-09-12T01:00:57.635Z,12.47
2022-09-12T01:02:02.255Z,12.46
2022-09-12T01:03:09.261Z,12.45
2022-09-12T01:04:16.226Z,12.45
2022-09-12T01:05:22.395Z,12.46
2022-09-12T01:06:31.069Z,12.46
2022-09-12T01:07:40.458Z,12.48
2022-09-12T01:08:46.357Z,12.47
2022-09-12T01:09:50.880Z,12.45
2022-09-12T01:10:57.500Z,12.46
2022-09-12T01:12:02.463Z,12.46
2022-09-12T01:13:09.738Z,12.46
2022-09-12T01:14:19.783Z,12.48
2022-09-12T01:15:28.779Z,12.46
2022-09-12T01:16:30.430Z,12.46
2022-09-12T01:18:07.590Z,12.48
2022-09-12T01:19:26.559Z,12.49
2022-09-12T01:20:40.012Z,12.49
2022-09-12T01:22:01.694Z,12.48
2022-09-12T01:23:08.863Z,12.48
2022-09-12T01:24:15.795Z,12.48
2022-09-12T01:25:39.072Z,12.47
2022-09-12T01:27:02.234Z,12.46
2022-09-12T01:28:29.993Z,12.46
2022-09-12T01:29:56.528Z,12.47
2022-09-12T01:31:06.296Z,12.45
2022-09-12T01:32:46.281Z,12.45
2022-09-12T01:34:15.415Z,12.45
2022-09-12T01:35:40.629Z,12.44
2022-09-12T01:36:53.494Z,12.44
2022-09-12T01:38:03.332Z,12.45
2022-09-12T01:39:12.965Z,12.46
2022-09-12T01:40:20.514Z,12.46
2022-09-12T01:41:36.185Z,12.47
2022-09-12T01:42:45.872Z,12.49
2022-09-12T01:44:06.393Z,12.50
2022-09-12T01:45:31.368Z,12.50
2022-09-12T01:46:44.270Z,12.49
2022-09-12T01:47:53.699Z,12.52
2022-09-12T01:49:03.473Z,12.52
2022-09-12T01:50:10.506Z,12.55
2022-09-12T01:51:17.522Z,12.57
2022-09-12T01:52:30.308Z,12.58
2022-09-12T01:53:48.805Z,12.58
2022-09-12T01:54:58.609Z,12.60
2022-09-12T01:56:05.578Z,12.60
2022-09-12T01:57:14.036Z,12.61
2022-09-12T01:58:26.550Z,12.65
2022-09-12T01:59:39.362Z,12.63
2022-09-12T02:01:08.554Z,12.66
2022-09-12T02:02:15.674Z,12.67
2022-09-12T02:03:22.707Z,12.68
2022-09-12T02:04:34.404Z,12.69
2022-09-12T02:05:47.351Z,12.69
2022-09-12T02:06:54.757Z,12.70
2022-09-12T02:08:04.400Z,12.70
2022-09-12T02:09:11.334Z,12.70
2022-09-12T02:10:23.478Z,12.70
2022-09-12T02:11:28.846Z,12.72
2022-09-12T02:12:35.713Z,12.73
2022-09-12T02:13:51.449Z,12.74
2022-09-12T02:14:58.380Z,12.75
2022-09-12T02:16:08.390Z,12.75
2022-09-12T02:17:15.592Z,12.77
2022-09-12T02:18:21.179Z,12.78
2022-09-12T02:19:30.725Z,12.78
2022-09-12T02:20:48.824Z,12.79
2022-09-12T02:21:53.915Z,12.80
2022-09-12T02:23:00.631Z,12.82
2022-09-12T02:25:27.730Z,12.82
2022-09-12T02:26:37.943Z,12.82
2022-09-12T02:27:44.805Z,12.85
2022-09-12T02:28:48.881Z,12.86
2022-09-12T02:29:53.641Z,12.87
2022-09-12T02:31:03.551Z,12.87
2022-09-12T02:32:10.565Z,12.88
2022-09-12T02:33:20.426Z,12.88
2022-09-12T02:34:42.186Z,12.88
2022-09-12T02:35:51.798Z,12.89
2022-09-12T02:37:07.736Z,12.89
2022-09-12T02:38:26.751Z,12.88
2022-09-12T02:39:30.855Z,12.90
2022-09-12T02:40:37.624Z,12.90
2022-09-12T02:41:41.611Z,12.90
2022-09-12T02:42:45.788Z,12.64
2022-09-12T02:43:52.133Z,12.91
2022-09-12T02:44:57.508Z,12.92
2022-09-12T02:46:01.475Z,12.92
2022-09-12T02:47:23.574Z,12.92
2022-09-12T02:48:35.642Z,12.93
2022-09-12T02:49:36.572Z,12.93
2022-09-12T02:50:43.821Z,12.94
2022-09-12T02:51:48.994Z,12.93
2022-09-12T02:52:54.079Z,12.93
2022-09-12T02:53:59.471Z,12.95
2022-09-12T02:55:07.516Z,12.97
2022-09-12T02:56:15.010Z,12.96
2022-09-12T02:57:23.146Z,12.96
2022-09-12T02:58:30.062Z,12.96
2022-09-12T02:59:34.045Z,12.97
2022-09-12T03:00:56.359Z,12.95
2022-09-12T03:02:09.407Z,12.95
2022-09-12T03:03:33.098Z,12.94
2022-09-12T03:05:05.435Z,12.94
2022-09-12T03:06:18.571Z,12.92
2022-09-12T03:07:40.163Z,12.90
2022-09-12T03:09:08.025Z,12.90
2022-09-12T03:10:32.358Z,12.89
2022-09-12T03:11:47.489Z,12.89
2022-09-12T03:12:54.423Z,12.89
2022-09-12T03:14:28.361Z,12.90
2022-09-12T03:16:04.667Z,12.90
2022-09-12T03:17:23.210Z,12.90
2022-09-12T03:18:38.832Z,12.91
2022-09-12T03:20:02.209Z,12.91
2022-09-12T03:21:11.734Z,12.92
2022-09-12T03:22:21.246Z,12.92
2022-09-12T03:23:30.836Z,12.93
2022-09-12T03:24:46.352Z,12.68
2022-09-12T03:25:59.311Z,12.92
2022-09-12T03:27:12.082Z,12.93
2022-09-12T03:28:18.581Z,12.94
2022-09-12T03:29:24.732Z,12.94
2022-09-12T03:30:29.213Z,12.94
2022-09-12T03:31:33.236Z,12.95
2022-09-12T03:32:46.042Z,12.97
2022-09-12T03:33:50.116Z,12.97
2022-09-12T03:34:54.049Z,12.98
2022-09-12T03:35:58.024Z,12.98
2022-09-12T03:37:02.173Z,13.00
2022-09-12T03:38:09.497Z,13.01
2022-09-12T03:39:19.772Z,13.01
2022-09-12T03:40:31.528Z,13.03
2022-09-12T03:41:49.629Z,13.03
2022-09-12T03:43:01.069Z,13.02
2022-09-12T03:44:06.644Z,13.04
2022-09-12T03:45:11.807Z,13.05
2022-09-12T03:46:17.630Z,13.05
2022-09-12T03:47:21.568Z,13.07
2022-09-12T03:48:27.033Z,13.06
2022-09-12T03:49:32.523Z,9.37
2022-09-12T03:50:36.648Z,13.09
2022-09-12T03:51:40.998Z,13.09
2022-09-12T03:52:45.120Z,13.10
2022-09-12T03:53:49.113Z,13.09
2022-09-12T03:54:53.111Z,13.09
2022-09-12T03:55:58.144Z,13.10
2022-09-12T03:57:02.228Z,13.10
2022-09-12T03:58:06.284Z,13.12
2022-09-12T03:59:10.226Z,13.13
2022-09-12T04:00:19.739Z,13.13
2022-09-12T04:01:21.800Z,13.14
2022-09-12T04:02:25.855Z,13.14
2022-09-12T04:03:29.856Z,13.13
2022-09-12T04:04:34.442Z,13.14
2022-09-12T04:05:38.394Z,13.14
2022-09-12T04:06:42.390Z,13.15
2022-09-12T04:07:46.274Z,13.16
2022-09-12T04:08:53.045Z,13.17
2022-09-12T04:09:57.128Z,13.18
2022-09-12T04:11:10.079Z,13.17
2022-09-12T04:12:13.941Z,13.19
2022-09-12T04:13:17.794Z,13.19
2022-09-12T04:14:21.717Z,13.19
2022-09-12T04:15:25.746Z,13.20
2022-09-12T04:16:30.334Z,13.20
2022-09-12T04:17:35.351Z,13.20
2022-09-12T04:18:39.971Z,13.21
2022-09-12T04:19:43.926Z,13.19
2022-09-12T04:20:47.954Z,13.19
2022-09-12T04:21:51.925Z,13.21
2022-09-12T04:22:55.893Z,13.22
2022-09-12T04:23:59.818Z,13.22
2022-09-12T04:25:04.875Z,13.25
2022-09-12T04:26:10.212Z,13.25
2022-09-12T04:27:18.113Z,13.27
2022-09-12T04:28:23.036Z,13.30
2022-09-12T04:29:28.443Z,13.30
2022-09-12T04:30:34.239Z,13.33
2022-09-12T04:31:39.774Z,13.34
2022-09-12T04:32:43.702Z,13.36
2022-09-12T04:33:47.727Z,13.36
2022-09-12T04:34:51.674Z,13.36
2022-09-12T04:35:55.616Z,13.37
2022-09-12T04:36:59.918Z,13.39
2022-09-12T04:38:03.925Z,13.43
2022-09-12T04:39:08.246Z,13.43
2022-09-12T04:40:13.179Z,13.45
2022-09-12T04:41:22.992Z,13.49
2022-09-12T04:42:27.440Z,13.50
2022-09-12T04:43:32.968Z,13.50
2022-09-12T04:44:36.978Z,13.50
2022-09-12T04:45:41.169Z,13.52
2022-09-12T04:46:46.850Z,13.54
2022-09-12T04:47:50.855Z,13.56
2022-09-12T04:48:57.108Z,13.56
2022-09-12T04:50:00.492Z,13.59
2022-09-12T04:51:22.582Z,13.60
2022-09-12T04:52:28.123Z,13.60
2022-09-12T04:53:32.263Z,13.61
2022-09-12T04:54:36.183Z,13.61
2022-09-12T04:55:42.816Z,13.61
2022-09-12T04:56:49.097Z,13.63
2022-09-12T04:57:52.981Z,13.64
2022-09-12T04:58:59.974Z,13.64
2022-09-12T05:00:07.347Z,13.64
2022-09-12T05:01:13.998Z,13.65
2022-09-12T05:02:18.041Z,13.65
2022-09-12T05:03:22.200Z,13.65
2022-09-12T05:04:26.049Z,13.65
2022-09-12T05:05:30.049Z,13.67
2022-09-12T05:06:36.373Z,13.66
2022-09-12T05:07:41.836Z,13.42
2022-09-12T05:08:46.026Z,13.42
2022-09-12T05:09:50.101Z,13.67
2022-09-12T05:10:54.016Z,13.67
2022-09-12T05:12:05.766Z,13.68
2022-09-12T05:13:03.588Z,13.70
2022-09-12T05:14:09.503Z,13.68
2022-09-12T05:15:13.243Z,13.68
2022-09-12T05:16:18.988Z,13.68
2022-09-12T05:17:23.066Z,13.68
2022-09-12T05:18:27.452Z,13.69
2022-09-12T05:19:32.220Z,13.68
2022-09-12T05:20:36.346Z,13.66
2022-09-12T05:21:41.878Z,13.65
2022-09-12T05:22:45.822Z,13.63
2022-09-12T05:23:52.325Z,13.63
2022-09-12T05:24:56.280Z,13.61
2022-09-12T05:26:01.630Z,13.59
2022-09-12T05:27:05.723Z,13.59
2022-09-12T05:28:09.706Z,13.58
2022-09-12T05:29:13.783Z,13.59
2022-09-12T05:30:19.255Z,13.58
2022-09-12T05:31:26.308Z,13.58
2022-09-12T05:32:32.304Z,13.58
2022-09-12T05:33:38.747Z,13.58
2022-09-12T05:34:42.699Z,13.57
2022-09-12T05:35:49.564Z,13.56
2022-09-12T05:36:53.787Z,13.58
2022-09-12T05:37:59.257Z,13.57
2022-09-12T05:39:03.812Z,13.60
2022-09-12T05:40:08.639Z,13.37
2022-09-12T05:41:19.000Z,13.62
2022-09-12T05:42:20.858Z,13.62
2022-09-12T05:43:24.886Z,13.63
2022-09-12T05:44:28.825Z,13.64
2022-09-12T05:45:32.786Z,13.64
2022-09-12T05:46:39.369Z,13.65
2022-09-12T05:47:49.159Z,13.67
2022-09-12T05:48:56.314Z,13.69
2022-09-12T05:49:59.490Z,13.69
2022-09-12T05:51:05.860Z,13.71
2022-09-12T05:52:09.793Z,13.70
2022-09-12T05:53:13.759Z,13.71
2022-09-12T05:54:20.058Z,13.71
2022-09-12T05:55:24.184Z,13.75
2022-09-12T05:56:32.056Z,13.76
2022-09-12T05:57:36.034Z,13.78
2022-09-12T05:58:42.140Z,13.81
2022-09-12T05:59:46.138Z,13.81
2022-09-12T06:00:50.152Z,13.84
2022-09-12T06:01:55.698Z,13.90
2022-09-12T06:03:02.429Z,13.92
2022-09-12T06:04:07.202Z,13.92
2022-09-12T06:05:11.201Z,13.95
2022-09-12T06:06:20.975Z,14.02
2022-09-12T06:07:28.726Z,14.04
2022-09-12T06:08:34.765Z,14.06
2022-09-12T06:09:38.793Z,14.06
2022-09-12T06:11:01.655Z,14.07
2022-09-12T06:11:52.645Z,14.06
2022-09-12T06:12:56.553Z,14.07
2022-09-12T06:14:01.366Z,14.08
2022-09-12T06:15:05.874Z,14.10
2022-09-12T06:16:15.954Z,14.10
2022-09-12T06:17:21.668Z,13.57
2022-09-12T06:18:33.941Z,14.09
2022-09-12T06:19:38.746Z,14.07
2022-09-12T06:20:44.231Z,14.07
2022-09-12T06:21:54.367Z,14.06
2022-09-12T06:22:58.292Z,14.06
2022-09-12T06:24:02.882Z,14.04
2022-09-12T06:25:07.394Z,13.99
2022-09-12T06:26:12.136Z,13.97
2022-09-12T06:27:16.072Z,13.95
2022-09-12T06:28:20.002Z,13.92
2022-09-12T06:29:24.126Z,13.90
2022-09-12T06:30:28.461Z,13.90
2022-09-12T06:31:35.706Z,13.90
2022-09-12T06:32:39.694Z,13.88
2022-09-12T06:33:46.458Z,13.84
2022-09-12T06:34:50.314Z,13.80
2022-09-12T06:35:54.241Z,13.74
2022-09-12T06:36:58.282Z,13.74
2022-09-12T06:38:02.325Z,13.69
2022-09-12T06:39:15.446Z,13.66
2022-09-12T06:40:19.716Z,13.63
2022-09-12T06:41:24.509Z,13.63
2022-09-12T06:42:28.449Z,13.54
2022-09-12T06:43:32.997Z,13.47
2022-09-12T06:44:37.018Z,13.48
2022-09-12T06:45:44.458Z,13.48
2022-09-12T06:46:50.245Z,13.45
2022-09-12T06:47:55.165Z,13.45
2022-09-12T06:49:00.531Z,13.45
2022-09-12T06:50:04.706Z,13.44
2022-09-12T06:51:11.723Z,13.44
2022-09-12T06:52:15.663Z,13.44
2022-09-12T06:53:19.602Z,13.47
2022-09-12T06:54:24.790Z,13.47
2022-09-12T06:55:28.729Z,13.46
2022-09-12T06:56:35.731Z,13.46
2022-09-12T06:57:39.797Z,13.43
2022-09-12T06:58:44.607Z,13.49
2022-09-12T06:59:48.550Z,13.49
2022-09-12T07:00:57.186Z,13.50
2022-09-12T07:01:58.528Z,13.50
2022-09-12T07:03:04.217Z,12.32
2022-09-12T07:04:08.155Z,13.60
2022-09-12T07:05:12.084Z,13.60
2022-09-12T07:06:19.551Z,13.63
2022-09-12T07:07:23.546Z,13.63
2022-09-12T07:08:27.537Z,13.66
2022-09-12T07:09:31.462Z,13.62
2022-09-12T07:10:35.478Z,13.65
2022-09-12T07:11:41.540Z,13.65
2022-09-12T07:12:45.463Z,13.69
2022-09-12T07:13:52.412Z,13.70
2022-09-12T07:14:56.399Z,13.70
2022-09-12T07:16:02.393Z,13.76
2022-09-12T07:17:06.516Z,13.89
2022-09-12T07:18:11.474Z,13.95
2022-09-12T07:19:15.372Z,14.00
2022-09-12T07:20:20.282Z,14.07
2022-09-12T07:21:24.399Z,14.09
2022-09-12T07:22:28.351Z,14.14
2022-09-12T07:23:32.672Z,14.14
2022-09-12T07:24:36.587Z,14.15
2022-09-12T07:25:40.503Z,14.15
2022-09-12T07:26:47.537Z,14.17
2022-09-12T07:27:53.277Z,14.17
2022-09-12T07:29:18.737Z,14.19
2022-09-12T07:30:08.000Z,14.25
2022-09-12T07:31:17.846Z,14.25
2022-09-12T07:32:21.772Z,14.30
2022-09-12T07:33:28.064Z,14.30
2022-09-12T07:34:32.349Z,14.30
2022-09-12T07:35:36.300Z,14.30
2022-09-12T07:36:40.232Z,14.32
2022-09-12T07:37:44.254Z,14.32
2022-09-12T07:38:48.300Z,14.36
2022-09-12T07:40:07.291Z,14.36
2022-09-12T07:40:58.385Z,14.43
2022-09-12T07:42:02.441Z,14.43
2022-09-12T07:43:06.522Z,14.47
2022-09-12T07:44:10.531Z,14.50
2022-09-12T07:45:14.614Z,14.50
2022-09-12T07:46:18.958Z,14.54
2022-09-12T07:47:24.457Z,14.54
2022-09-12T07:48:28.603Z,14.51
2022-09-12T07:49:32.641Z,14.50
2022-09-12T07:50:37.298Z,14.47
2022-09-12T07:51:41.667Z,14.47
2022-09-12T07:52:45.579Z,14.47
2022-09-12T07:53:50.375Z,14.46
2022-09-12T07:54:54.326Z,14.49
2022-09-12T07:56:00.261Z,14.63
2022-09-12T07:57:04.265Z,14.71
2022-09-12T07:58:08.260Z,14.81
2022-09-12T07:59:12.240Z,14.81
2022-09-12T08:00:18.409Z,15.05
2022-09-12T08:01:23.467Z,15.19
2022-09-12T08:02:27.489Z,15.19
2022-09-12T08:03:33.032Z,15.53
2022-09-12T08:04:38.223Z,15.68
2022-09-12T08:05:44.989Z,15.81
2022-09-12T08:06:50.416Z,15.81
2022-09-12T08:07:57.647Z,16.04
2022-09-12T08:09:00.509Z,16.15
2022-09-12T08:10:07.150Z,16.27
2022-09-12T08:11:13.483Z,16.27
2022-09-12T08:12:17.563Z,16.41
2022-09-12T08:13:23.040Z,16.45
2022-09-12T08:14:27.111Z,16.45
2022-09-12T08:15:31.223Z,16.48
2022-09-12T08:16:35.355Z,16.44
2022-09-12T08:17:39.248Z,16.44
2022-09-12T08:18:43.632Z,16.37
2022-09-12T08:19:47.668Z,16.37
2022-09-12T08:20:59.912Z,16.37
2022-09-12T08:22:06.130Z,16.39
2022-09-12T08:23:12.046Z,16.41
2022-09-12T08:24:16.258Z,16.48
2022-09-12T08:25:20.265Z,16.48
2022-09-12T08:26:24.904Z,16.57
2022-09-12T08:27:28.890Z,16.63
2022-09-12T08:28:35.161Z,16.66
2022-09-12T08:29:39.137Z,16.66
2022-09-12T08:30:43.065Z,16.73
2022-09-12T08:31:47.102Z,16.77
2022-09-12T08:32:53.740Z,16.85
2022-09-12T08:33:59.851Z,16.87
2022-09-12T08:35:08.649Z,16.87
2022-09-12T08:36:22.498Z,16.87
2022-09-12T08:37:26.570Z,16.94
2022-09-12T08:38:30.680Z,16.94
2022-09-12T08:39:39.448Z,16.98
2022-09-12T08:40:55.571Z,16.97
2022-09-12T08:42:02.600Z,16.99
2022-09-12T08:43:12.635Z,16.93
2022-09-12T08:44:37.537Z,16.89
2022-09-12T08:45:47.517Z,16.89
2022-09-12T08:47:08.595Z,16.84
2022-09-12T08:48:18.211Z,16.80
2022-09-12T08:49:33.925Z,16.76
2022-09-12T08:50:38.093Z,16.66
2022-09-12T08:51:42.897Z,16.66
2022-09-12T08:53:05.036Z,16.66
2022-09-12T08:54:11.971Z,16.62
2022-09-12T08:55:35.156Z,16.62
2022-09-12T08:56:40.024Z,16.54
2022-09-12T08:57:44.033Z,16.54
2022-09-12T08:58:48.768Z,16.54
2022-09-12T08:59:53.861Z,16.53
2022-09-12T09:01:13.276Z,16.59
2022-09-12T09:02:28.929Z,16.64
2022-09-12T09:03:52.392Z,16.64
2022-09-12T09:05:05.278Z,16.64
2022-09-12T09:06:35.481Z,16.73
2022-09-12T09:08:08.905Z,16.73
2022-09-12T09:09:23.998Z,16.76
2022-09-12T09:10:40.787Z,16.85
2022-09-12T09:11:59.580Z,16.91
2022-09-12T09:13:15.436Z,16.96
2022-09-12T09:14:30.985Z,16.96
2022-09-12T09:15:59.231Z,17.05
2022-09-12T09:18:26.893Z,17.09
2022-09-12T09:19:36.734Z,17.15
2022-09-12T09:20:57.068Z,17.17
2022-09-12T09:22:06.711Z,17.17
2022-09-12T09:23:30.155Z,17.18
2022-09-12T09:24:37.087Z,17.18
2022-09-12T09:25:46.688Z,17.28
2022-09-12T09:26:53.720Z,17.34
2022-09-12T09:28:09.272Z,17.34
2022-09-12T09:29:24.778Z,17.43
2022-09-12T09:30:31.504Z,17.44
2022-09-12T09:31:38.432Z,17.50
2022-09-12T09:32:44.448Z,17.52
2022-09-12T09:33:51.238Z,17.52
2022-09-12T09:34:55.290Z,17.62
2022-09-12T09:36:10.691Z,17.62
2022-09-12T09:37:20.433Z,17.77
2022-09-12T09:38:40.049Z,17.77
2022-09-12T09:40:04.948Z,17.81
2022-09-12T09:41:35.969Z,17.88
2022-09-12T09:42:45.987Z,17.95
2022-09-12T09:43:50.350Z,18.02
2022-09-12T09:44:57.364Z,18.09
2022-09-12T09:46:01.490Z,18.12
2022-09-12T09:47:05.901Z,18.11
2022-09-12T09:48:36.777Z,18.10
2022-09-12T09:49:42.454Z,18.08
2022-09-12T09:50:48.575Z,18.08
2022-09-12T09:51:53.752Z,18.05
2022-09-12T09:53:01.465Z,18.06
2022-09-12T09:54:20.214Z,18.08
2022-09-12T09:56:52.544Z,18.12
2022-09-12T09:57:56.537Z,18.20
2022-09-12T09:59:20.080Z,18.28
2022-09-12T10:00:27.581Z,18.30
2022-09-12T10:01:32.143Z,18.33
2022-09-12T10:02:36.328Z,18.37
2022-09-12T10:03:42.776Z,18.37
2022-09-12T10:04:58.119Z,18.42
2022-09-12T10:07:35.614Z,18.61
2022-09-12T10:08:41.865Z,18.43
2022-09-12T10:10:06.793Z,18.43
2022-09-12T10:11:19.470Z,18.41
2022-09-12T10:12:30.026Z,18.39
2022-09-12T10:13:48.993Z,18.35
2022-09-12T10:15:16.311Z,18.34
2022-09-12T10:16:01.731Z,18.34
2022-09-12T10:17:25.033Z,18.37
2022-09-12T10:18:37.938Z,18.39
2022-09-12T10:19:41.927Z,18.33
2022-09-12T10:20:48.883Z,18.33
2022-09-12T10:21:56.188Z,18.33
2022-09-12T10:23:06.224Z,18.40
2022-09-12T10:24:22.121Z,18.39
2022-09-12T10:25:27.699Z,18.36
2022-09-12T10:26:37.536Z,18.36
2022-09-12T10:27:43.003Z,18.29
2022-09-12T10:28:54.207Z,18.29
2022-09-12T10:30:03.872Z,18.26
2022-09-12T10:31:12.854Z,18.16
2022-09-12T10:32:37.560Z,18.10
2022-09-12T10:33:47.569Z,18.04
2022-09-12T10:35:00.610Z,18.01
2022-09-12T10:36:04.663Z,17.96
2022-09-12T10:37:11.637Z,17.96
2022-09-12T10:38:26.161Z,13.73
2022-09-12T10:39:30.852Z,17.72
2022-09-12T10:40:40.562Z,17.67
2022-09-12T10:41:44.637Z,17.62
2022-09-12T10:42:54.382Z,17.62
2022-09-12T10:44:08.423Z,17.51
2022-09-12T10:45:32.493Z,17.50
2022-09-12T10:46:36.440Z,17.51
2022-09-12T10:47:40.523Z,17.56
2022-09-12T10:48:46.638Z,17.61
2022-09-12T10:49:50.633Z,17.61
2022-09-12T10:50:58.938Z,17.62
2022-09-12T10:52:25.169Z,17.65
2022-09-12T10:53:46.213Z,17.65
2022-09-12T10:54:51.425Z,17.66
2022-09-12T10:55:58.366Z,17.62
2022-09-12T10:57:08.096Z,17.62
2022-09-12T10:58:30.225Z,17.66
2022-09-12T11:00:00.933Z,17.68
2022-09-12T11:01:10.543Z,17.72
2022-09-12T11:02:29.673Z,17.77
2022-09-12T11:03:36.716Z,17.82
2022-09-12T11:05:04.644Z,17.86
2022-09-12T11:06:11.053Z,17.91
2022-09-12T11:07:27.220Z,17.98
2022-09-12T11:08:46.155Z,17.98
2022-09-12T11:10:05.213Z,18.08
2022-09-12T11:11:23.788Z,18.08
2022-09-12T11:12:45.212Z,18.13
2022-09-12T11:14:09.544Z,18.14
2022-09-12T11:15:28.273Z,18.14
2022-09-12T11:16:53.207Z,18.20
2022-09-12T11:18:00.145Z,18.20
2022-09-12T11:19:23.612Z,18.21
2022-09-12T11:20:50.373Z,18.22
2022-09-12T11:22:05.859Z,18.22
2022-09-12T11:23:35.524Z,18.15
2022-09-12T11:24:57.541Z,18.03
2022-09-12T11:26:16.344Z,18.03
2022-09-12T11:27:50.402Z,17.99
2022-09-12T11:29:19.898Z,17.99
2022-09-12T11:30:24.094Z,17.97
2022-09-12T11:31:55.398Z,17.95
2022-09-12T11:33:26.623Z,17.90
2022-09-12T11:34:54.686Z,17.90
2022-09-12T11:36:00.228Z,17.80
2022-09-12T11:37:17.414Z,17.76
2022-09-12T11:38:27.049Z,17.70
2022-09-12T11:39:33.992Z,17.70
2022-09-12T11:40:50.146Z,17.62
2022-09-12T11:42:00.443Z,17.57
2022-09-12T11:43:23.773Z,17.57
2022-09-12T11:44:30.726Z,17.40
2022-09-12T11:45:43.470Z,17.32
2022-09-12T11:46:51.757Z,17.27
2022-09-12T11:47:56.559Z,17.27
2022-09-12T11:49:15.492Z,17.14
2022-09-12T11:50:31.281Z,17.09
2022-09-12T11:51:54.254Z,17.03
2022-09-12T11:53:15.979Z,16.99
2022-09-12T11:54:43.833Z,16.99
2022-09-12T11:55:56.484Z,16.95
2022-09-12T11:58:28.354Z,16.75
2022-09-12T11:59:51.827Z,16.72
2022-09-12T12:01:01.673Z,16.70
2022-09-12T12:02:11.129Z,16.67
2022-09-12T12:03:37.579Z,16.64
2022-09-12T12:04:47.427Z,16.60
2022-09-12T12:06:01.542Z,16.60
2022-09-12T12:07:08.535Z,16.57
2022-09-12T12:08:12.916Z,16.53
2022-09-12T12:09:17.103Z,16.52
2022-09-12T12:10:42.450Z,16.49
2022-09-12T12:11:55.214Z,16.49
2022-09-12T12:13:01.168Z,16.47
2022-09-12T12:14:09.715Z,16.45
2022-09-12T12:15:16.467Z,16.45
2022-09-12T12:16:32.702Z,16.43
2022-09-12T12:17:36.761Z,16.43
2022-09-12T12:18:43.223Z,16.41
2022-09-12T12:19:49.746Z,16.38
2022-09-12T12:20:55.397Z,16.38
2022-09-12T12:22:04.981Z,16.37
2022-09-12T12:23:28.512Z,16.36
2022-09-12T12:24:33.582Z,16.33
2022-09-12T12:25:43.302Z,16.30
2022-09-12T12:30:57.201Z,16.17
2022-09-12T12:32:04.157Z,16.19
2022-09-12T12:33:11.311Z,16.19
2022-09-12T12:34:30.131Z,16.19
2022-09-12T12:35:41.361Z,16.20
2022-09-12T12:36:45.694Z,16.20
2022-09-12T12:37:53.106Z,16.21
2022-09-12T12:38:57.256Z,16.19
2022-09-12T12:40:14.788Z,16.21
2022-09-12T12:41:22.696Z,16.21
2022-09-12T12:42:38.778Z,16.18
2022-09-12T12:43:44.319Z,16.18
2022-09-12T12:44:50.638Z,16.14
2022-09-12T12:46:03.577Z,16.13
2022-09-12T12:47:25.261Z,16.13
2022-09-12T12:48:33.020Z,16.12
2022-09-12T12:49:37.258Z,16.12
2022-09-12T12:50:41.605Z,16.09
2022-09-12T12:51:55.765Z,16.09
2022-09-12T12:53:17.454Z,16.09
2022-09-12T12:54:33.675Z,16.09
2022-09-12T12:55:47.906Z,16.09
2022-09-12T12:56:54.834Z,16.09
2022-09-12T12:59:16.998Z,16.09
2022-09-12T13:00:27.810Z,16.09
2022-09-12T13:03:31.693Z,16.07
2022-09-12T13:04:35.893Z,16.07
2022-09-12T13:05:48.906Z,16.03
2022-09-12T13:07:08.149Z,16.03
2022-09-12T13:08:18.838Z,16.05
2022-09-12T13:09:34.618Z,16.04
2022-09-12T13:10:39.393Z,16.03
2022-09-12T13:11:43.800Z,16.03
2022-09-12T13:12:48.687Z,16.03
2022-09-12T13:13:55.632Z,16.04
2022-09-12T13:15:01.782Z,16.01
2022-09-12T13:16:06.008Z,16.01
2022-09-12T13:17:18.755Z,15.99
2022-09-12T13:18:31.667Z,15.99
2022-09-12T13:19:38.585Z,15.99
2022-09-12T13:22:11.058Z,16.07
2022-09-12T13:23:23.213Z,15.91
2022-09-12T13:24:27.406Z,15.91
2022-09-12T13:25:36.926Z,15.90
2022-09-12T13:26:47.221Z,15.88
2022-09-12T13:28:05.970Z,15.88
2022-09-12T13:29:18.068Z,15.88
2022-09-12T13:30:27.429Z,15.90
2022-09-12T13:31:32.006Z,15.91
2022-09-12T13:32:36.664Z,15.89
2022-09-12T13:33:55.425Z,15.89
2022-09-12T13:35:14.007Z,15.81
2022-09-12T13:36:24.597Z,15.77
2022-09-12T13:37:42.099Z,15.75
2022-09-12T13:38:49.250Z,15.75
2022-09-12T13:40:20.170Z,15.71
2022-09-12T13:41:43.263Z,15.62
2022-09-12T13:42:51.772Z,15.62
2022-09-12T13:43:55.859Z,15.56
2022-09-12T13:45:05.319Z,15.55
2022-09-12T13:46:12.439Z,15.55
2022-09-12T13:47:19.416Z,15.52
2022-09-12T13:48:25.646Z,15.48
2022-09-12T13:49:40.538Z,15.48
2022-09-12T13:50:53.091Z,15.48
2022-09-12T13:52:02.693Z,15.47
2022-09-12T13:53:09.589Z,15.47
2022-09-12T13:54:16.531Z,15.47
2022-09-12T13:55:29.504Z,15.46
2022-09-12T13:56:33.558Z,15.44
2022-09-12T13:57:39.622Z,15.44
2022-09-12T13:58:58.737Z,15.44
2022-09-12T14:00:05.671Z,15.44
2022-09-12T14:01:16.438Z,15.43
2022-09-12T14:02:23.525Z,15.43
2022-09-12T14:03:30.273Z,15.43
2022-09-12T14:04:35.766Z,15.42
2022-09-12T14:05:43.048Z,15.37
2022-09-12T14:06:52.488Z,15.35
2022-09-12T14:07:59.431Z,15.36
2022-09-12T14:09:04.860Z,15.36
2022-09-12T14:10:10.844Z,15.38
2022-09-12T14:11:20.473Z,15.38
2022-09-12T14:12:27.427Z,15.38
2022-09-12T14:13:31.344Z,15.38
2022-09-12T14:14:39.821Z,15.36
2022-09-12T14:15:49.742Z,15.34
2022-09-12T14:16:54.165Z,15.34
2022-09-12T14:18:00.623Z,15.30
2022-09-12T14:19:04.692Z,15.27
2022-09-12T14:20:14.981Z,15.26
2022-09-12T14:21:30.818Z,15.27
2022-09-12T14:22:36.272Z,15.27
2022-09-12T14:23:43.473Z,15.24
2022-09-12T14:24:50.068Z,15.20
2022-09-12T14:25:54.844Z,15.18
2022-09-12T14:26:59.192Z,15.16
2022-09-12T14:28:03.521Z,15.12
2022-09-12T14:29:08.966Z,15.12
2022-09-12T14:30:28.807Z,15.12
2022-09-12T14:31:38.339Z,15.08
2022-09-12T14:32:42.320Z,15.05
2022-09-12T14:33:55.141Z,15.03
2022-09-12T14:35:13.480Z,15.01
2022-09-12T14:36:36.775Z,14.96
2022-09-12T14:37:41.092Z,14.94
2022-09-12T14:38:48.504Z,14.94
2022-09-12T14:39:52.705Z,14.91
2022-09-12T14:41:05.472Z,14.89
2022-09-12T14:42:14.911Z,14.86
2022-09-12T14:43:30.904Z,14.86
2022-09-12T14:44:36.981Z,14.73
2022-09-12T14:45:40.977Z,14.73
2022-09-12T14:46:45.427Z,14.69
2022-09-12T14:47:51.276Z,14.69
2022-09-12T14:48:58.198Z,14.67
2022-09-12T14:50:02.386Z,14.67
2022-09-12T14:51:07.267Z,14.63
2022-09-12T14:52:29.652Z,14.63
2022-09-12T14:53:36.757Z,14.57
2022-09-12T14:54:42.392Z,14.56
2022-09-12T14:55:52.236Z,14.56
2022-09-12T14:56:59.300Z,14.54
2022-09-12T14:58:24.253Z,14.49
2022-09-12T14:59:37.217Z,14.45
2022-09-12T15:00:55.931Z,14.41
2022-09-12T15:02:21.220Z,14.40
2022-09-12T15:03:28.174Z,14.37
2022-09-12T15:04:50.057Z,14.37
2022-09-12T15:05:56.402Z,14.31